Helene — V7VF9 — position and weather

sailwx.info

Track history (hours):
 
Tides and Currents Weather Stations Pressure Air Temp Water Temp Dewpoint Dewpoint Depression Visibility Wind Speed Wind Dir Waves Ship Positions

Helene

Last reported at 2017-May-24 18:25 UTC. Time now 2017-May-27 13:49 UTC.
Position S 28°02' W 048°15'.

Length 207 m; draft 7.9 m.

Type: Cargo ship. MMSI: 538006866.

Date/timePositionNaut miles runAvg speedWind from/ knotsBaromVisibWave heightAir tempDewpointWater temp
2017-May-24 18:25S 28°02' W 048°15'819.7
2017-May-24 18:00S 27°54' W 048°13'1019.9
2017-May-24 17:30S 27°44' W 048°13'1019.6
2017-May-24 17:00S 27°34' W 048°13'1019.7
2017-May-24 16:30S 27°24' W 048°12'  
2017-May-18 04:59S 24°55' W 046°47'713.3
2017-May-18 04:29S 24°50' W 046°43'713.4
2017-May-18 04:00S 24°45' W 046°38'613.2
2017-May-18 03:30S 24°40' W 046°34'713.4
2017-May-18 03:00S 24°34' W 046°29'612.8
2017-May-18 02:30S 24°28' W 046°28'612.8
2017-May-18 02:00S 24°22' W 046°26'713.0
2017-May-18 01:30S 24°15' W 046°25'613.0
2017-May-18 01:00S 24°09' W 046°24'713.0
2017-May-18 00:30S 24°03' W 046°21'4 8.9
2017-May-18 00:00S 23°60' W 046°18'3 0.3
2017-May-17 12:51S 23°57' W 046°19'2 4.8
2017-May-17 12:30S 23°58' W 046°18'0 0.0
2017-May-17 11:39S 23°58' W 046°18'0 0.0
2017-May-17 11:30S 23°58' W 046°18'0 0.0
2017-May-17 10:54S 23°58' W 046°18'0 0.0
2017-May-17 10:06S 23°58' W 046°18'0 0.0
2017-May-17 09:00S 23°58' W 046°18'0 0.0
2017-May-17 07:57S 23°58' W 046°18'0 0.0
2017-May-17 07:30S 23°58' W 046°18'1 0.2
2017-May-17 02:55S 23°59' W 046°17'3 8.0
2017-May-17 02:30S 24°01' W 046°21'612.5
2017-May-17 02:00S 24°07' W 046°22'713.4
2017-May-17 01:31S 24°13' W 046°19'0 0.5
2017-May-17 00:58S 24°13' W 046°19'0 0.1
2017-May-17 00:25S 24°13' W 046°19'0 0.0
2017-May-16 23:55S 24°13' W 046°19'0 0.0
2017-May-16 23:28S 24°13' W 046°19'0 0.0
2017-May-16 22:58S 24°13' W 046°19'0 0.0
2017-May-16 22:28S 24°13' W 046°19'0 0.0
2017-May-16 21:55S 24°13' W 046°19'0 0.0
2017-May-16 21:28S 24°13' W 046°19'0 0.0
2017-May-16 20:58S 24°13' W 046°19'0 0.0
2017-May-16 20:28S 24°13' W 046°19'0 0.0
2017-May-16 19:58S 24°13' W 046°19'0 0.0
2017-May-16 19:28S 24°13' W 046°19'0 0.0
2017-May-16 18:58S 24°13' W 046°19'0 0.0
2017-May-16 18:28S 24°13' W 046°19'0 0.0
2017-May-16 17:58S 24°13' W 046°19'0 0.0
2017-May-16 17:28S 24°13' W 046°19'0 0.0
2017-May-16 16:46S 24°13' W 046°19'0 0.0
2017-May-16 16:22S 24°13' W 046°19'0 0.0
2017-May-16 15:55S 24°13' W 046°19'0 0.0
2017-May-16 15:28S 24°13' W 046°19'0 0.0
2017-May-16 14:58S 24°13' W 046°19'0 0.1
2017-May-16 14:28S 24°13' W 046°19'0 0.0
2017-May-16 13:28S 24°13' W 046°19'0 0.0
2017-May-16 12:58S 24°13' W 046°19'0 0.0
2017-May-16 12:31S 24°13' W 046°19'0 0.0
2017-May-16 12:00S 24°13' W 046°19'0 0.0
2017-May-16 11:30S 24°13' W 046°19'0 0.0
2017-May-16 11:00S 24°13' W 046°19'0 0.0
2017-May-16 10:30S 24°13' W 046°19'0 0.0
2017-May-16 10:00S 24°13' W 046°19'0 0.0
2017-May-16 09:30S 24°13' W 046°19'0 0.0
2017-May-16 08:57S 24°13' W 046°19'0 0.0
2017-May-16 08:27S 24°13' W 046°19'0 0.0
2017-May-16 08:00S 24°13' W 046°19'0 0.0
2017-May-16 07:30S 24°13' W 046°19'0 0.0
2017-May-16 07:00S 24°13' W 046°19'0 0.0
2017-May-16 06:30S 24°13' W 046°19'0 0.0
2017-May-16 06:00S 24°13' W 046°19'0 0.0
2017-May-16 05:24S 24°13' W 046°19'0 0.1
2017-May-16 05:00S 24°13' W 046°19'0 0.0
2017-May-16 04:27S 24°13' W 046°19'0 0.3
2017-May-16 04:00S 24°13' W 046°19'1 2.2
2017-May-16 03:30S 24°14' W 046°18'4 7.8
2017-May-16 03:00S 24°15' W 046°14'611.5
2017-May-16 02:30S 24°16' W 046°08'  
Track history (hours):
 
Tides and Currents Weather Stations Pressure Air Temp Water Temp Dewpoint Dewpoint Depression Visibility Wind Speed Wind Dir Waves Ship Positions

Helene

Last reported at 2017-May-24 18:25 UTC. Time now 2017-May-27 13:49 UTC.
Position S 28°02' W 048°15'.

Length 207 m; draft 7.9 m.

Type: Cargo ship. MMSI: 538006866.

Date/timePositionNaut miles runAvg speedWind from/ knotsBaromVisibWave heightAir tempDewpointWater temp
2017-May-24 18:25S 28°02' W 048°15'819.7
2017-May-24 18:00S 27°54' W 048°13'1019.9
2017-May-24 17:30S 27°44' W 048°13'1019.6
2017-May-24 17:00S 27°34' W 048°13'1019.7
2017-May-24 16:30S 27°24' W 048°12'  
2017-May-18 04:59S 24°55' W 046°47'713.3
2017-May-18 04:29S 24°50' W 046°43'713.4
2017-May-18 04:00S 24°45' W 046°38'613.2
2017-May-18 03:30S 24°40' W 046°34'713.4
2017-May-18 03:00S 24°34' W 046°29'612.8
2017-May-18 02:30S 24°28' W 046°28'612.8
2017-May-18 02:00S 24°22' W 046°26'713.0
2017-May-18 01:30S 24°15' W 046°25'613.0
2017-May-18 01:00S 24°09' W 046°24'713.0
2017-May-18 00:30S 24°03' W 046°21'4 8.9
2017-May-18 00:00S 23°60' W 046°18'3 0.3
2017-May-17 12:51S 23°57' W 046°19'2 4.8
2017-May-17 12:30S 23°58' W 046°18'0 0.0
2017-May-17 11:39S 23°58' W 046°18'0 0.0
2017-May-17 11:30S 23°58' W 046°18'0 0.0
2017-May-17 10:54S 23°58' W 046°18'0 0.0
2017-May-17 10:06S 23°58' W 046°18'0 0.0
2017-May-17 09:00S 23°58' W 046°18'0 0.0
2017-May-17 07:57S 23°58' W 046°18'0 0.0
2017-May-17 07:30S 23°58' W 046°18'1 0.2
2017-May-17 02:55S 23°59' W 046°17'3 8.0
2017-May-17 02:30S 24°01' W 046°21'612.5
2017-May-17 02:00S 24°07' W 046°22'713.4
2017-May-17 01:31S 24°13' W 046°19'0 0.5
2017-May-17 00:58S 24°13' W 046°19'0 0.1
2017-May-17 00:25S 24°13' W 046°19'0 0.0
2017-May-16 23:55S 24°13' W 046°19'0 0.0
2017-May-16 23:28S 24°13' W 046°19'0 0.0
2017-May-16 22:58S 24°13' W 046°19'0 0.0
2017-May-16 22:28S 24°13' W 046°19'0 0.0
2017-May-16 21:55S 24°13' W 046°19'0 0.0
2017-May-16 21:28S 24°13' W 046°19'0 0.0
2017-May-16 20:58S 24°13' W 046°19'0 0.0
2017-May-16 20:28S 24°13' W 046°19'0 0.0
2017-May-16 19:58S 24°13' W 046°19'0 0.0
2017-May-16 19:28S 24°13' W 046°19'0 0.0
2017-May-16 18:58S 24°13' W 046°19'0 0.0
2017-May-16 18:28S 24°13' W 046°19'0 0.0
2017-May-16 17:58S 24°13' W 046°19'0 0.0
2017-May-16 17:28S 24°13' W 046°19'0 0.0
2017-May-16 16:46S 24°13' W 046°19'0 0.0
2017-May-16 16:22S 24°13' W 046°19'0 0.0
2017-May-16 15:55S 24°13' W 046°19'0 0.0
2017-May-16 15:28S 24°13' W 046°19'0 0.0
2017-May-16 14:58S 24°13' W 046°19'0 0.1
2017-May-16 14:28S 24°13' W 046°19'0 0.0
2017-May-16 13:28S 24°13' W 046°19'0 0.0
2017-May-16 12:58S 24°13' W 046°19'0 0.0
2017-May-16 12:31S 24°13' W 046°19'0 0.0
2017-May-16 12:00S 24°13' W 046°19'0 0.0
2017-May-16 11:30S 24°13' W 046°19'0 0.0
2017-May-16 11:00S 24°13' W 046°19'0 0.0
2017-May-16 10:30S 24°13' W 046°19'0 0.0
2017-May-16 10:00S 24°13' W 046°19'0 0.0
2017-May-16 09:30S 24°13' W 046°19'0 0.0
2017-May-16 08:57S 24°13' W 046°19'0 0.0
2017-May-16 08:27S 24°13' W 046°19'0 0.0
2017-May-16 08:00S 24°13' W 046°19'0 0.0
2017-May-16 07:30S 24°13' W 046°19'0 0.0
2017-May-16 07:00S 24°13' W 046°19'0 0.0
2017-May-16 06:30S 24°13' W 046°19'0 0.0
2017-May-16 06:00S 24°13' W 046°19'0 0.0
2017-May-16 05:24S 24°13' W 046°19'0 0.1
2017-May-16 05:00S 24°13' W 046°19'0 0.0
2017-May-16 04:27S 24°13' W 046°19'0 0.3
2017-May-16 04:00S 24°13' W 046°19'1 2.2
2017-May-16 03:30S 24°14' W 046°18'4 7.8
2017-May-16 03:00S 24°15' W 046°14'611.5
2017-May-16 02:30S 24°16' W 046°08'  

Dump ship's entire track history